Time;durP1;ratioP1;P1;durP2;ratioP2;P2;SDS_P1;SDS_P2;PMS_P1;PMS_P2;Temp;Humidity;BMP_temperature;BMP_pressure;BME280_temperature;BME280_humidity;BME280_pressure;Samples;Min_cycle;Max_cycle;Signal;HPM_P1;HPM_P2
2022/03/15 00:02:13;;;;;;;5.45;1.60;;;;;;;;;;5011919;28;20386;-67
2022/03/15 00:04:39;;;;;;;12.45;2.25;;;;;;;;;;5012019;28;20030;-66
2022/03/15 00:07:05;;;;;;;4.70;1.70;;;;;;;;;;5011161;28;20029;-66
2022/03/15 00:09:30;;;;;;;5.93;1.77;;;;;;;;;;5012117;28;20505;-66
2022/03/15 00:11:56;;;;;;;4.22;1.60;;;;;;;;;;5011830;28;20022;-66
2022/03/15 00:14:23;;;;;;;5.40;1.75;;;;;;;;;;5012321;28;20232;-66
2022/03/15 00:16:48;;;;;;;6.93;2.00;;;;;;;;;;5011960;28;20037;-66
2022/03/15 00:19:14;;;;;;;4.53;1.63;;;;;;;;;;5012059;28;20018;-67
2022/03/15 00:21:39;;;;;;;4.75;1.70;;;;;;;;;;5011716;28;20037;-67
2022/03/15 00:24:06;;;;;;;9.05;1.65;;;;;;;;;;5012199;28;20018;-66
2022/03/15 00:26:32;;;;;;;4.95;2.00;;;;;;;;;;5011552;28;20102;-66
2022/03/15 00:28:58;;;;;;;4.18;1.70;;;;;;;;;;5011815;28;20072;-66
2022/03/15 00:31:23;;;;;;;7.97;2.05;;;;;;;;;;5011355;28;20030;-67
2022/03/15 00:33:49;;;;;;;6.18;1.77;;;;;;;;;;5011994;28;20033;-66
2022/03/15 00:36:14;;;;;;;4.18;1.73;;;;;;;;;;5011440;28;20050;-67
2022/03/15 00:38:41;;;;;;;5.95;1.95;;;;;;;;;;5011439;28;20054;-67
2022/03/15 00:41:08;;;;;;;5.20;1.92;;;;;;;;;;5011560;28;20053;-66
2022/03/15 00:43:33;;;;;;;6.78;2.08;;;;;;;;;;5011436;28;20109;-70
2022/03/15 00:46:00;;;;;;;4.40;1.73;;;;;;;;;;5011420;28;20112;-66
2022/03/15 00:48:26;;;;;;;6.07;1.83;;;;;;;;;;5011315;28;20034;-67
2022/03/15 00:50:51;;;;;;;5.00;1.90;;;;;;;;;;5011541;28;20026;-66
2022/03/15 00:53:17;;;;;;;5.82;1.92;;;;;;;;;;5011293;28;20032;-67
2022/03/15 00:55:43;;;;;;;5.95;2.03;;;;;;;;;;5011513;28;20108;-66
2022/03/15 00:58:09;;;;;;;4.75;2.00;;;;;;;;;;5011184;28;20021;-67
2022/03/15 01:00:35;;;;;;;4.60;1.80;;;;;;;;;;5011296;28;20045;-66
2022/03/15 01:03:02;;;;;;;5.70;1.90;;;;;;;;;;5010874;28;20474;-67
2022/03/15 01:05:28;;;;;;;7.50;2.10;;;;;;;;;;5011240;28;20030;-66
2022/03/15 01:07:53;;;;;;;4.50;2.00;;;;;;;;;;5011038;28;20032;-66
2022/03/15 01:10:19;;;;;;;5.35;1.80;;;;;;;;;;5011207;28;20037;-66
2022/03/15 01:12:44;;;;;;;6.18;2.22;;;;;;;;;;5010713;28;20113;-66
2022/03/15 01:15:10;;;;;;;5.65;2.30;;;;;;;;;;5010950;28;20017;-66
2022/03/15 01:17:35;;;;;;;7.07;2.20;;;;;;;;;;5010684;28;20026;-67
2022/03/15 01:20:03;;;;;;;5.88;2.20;;;;;;;;;;5010928;28;20097;-66
2022/03/15 01:22:28;;;;;;;7.63;2.35;;;;;;;;;;5010725;28;20022;-66
2022/03/15 01:24:54;;;;;;;5.55;2.42;;;;;;;;;;5010971;28;20505;-66
2022/03/15 01:27:20;;;;;;;5.05;2.30;;;;;;;;;;5010835;28;20026;-66
2022/03/15 01:29:45;;;;;;;5.72;2.30;;;;;;;;;;5010816;28;20103;-65
2022/03/15 01:32:11;;;;;;;7.95;2.10;;;;;;;;;;5010213;28;20481;-66
2022/03/15 01:34:36;;;;;;;5.70;1.95;;;;;;;;;;5010429;28;20025;-66
2022/03/15 01:37:02;;;;;;;3.90;1.90;;;;;;;;;;5010420;28;20033;-66
2022/03/15 01:39:28;;;;;;;3.78;1.73;;;;;;;;;;5010621;28;20029;-67
2022/03/15 01:41:54;;;;;;;4.70;1.80;;;;;;;;;;5010522;28;20030;-67
2022/03/15 01:44:21;;;;;;;4.53;2.17;;;;;;;;;;5010578;28;20084;-66
2022/03/15 01:46:49;;;;;;;4.13;2.13;;;;;;;;;;5010598;28;20030;-66
2022/03/15 01:49:15;;;;;;;4.40;1.92;;;;;;;;;;5010496;28;20033;-66
2022/03/15 01:51:43;;;;;;;6.13;2.70;;;;;;;;;;5010640;28;20417;-66
2022/03/15 01:54:11;;;;;;;4.03;1.95;;;;;;;;;;5010048;28;20484;-66
2022/03/15 01:56:41;;;;;;;4.97;2.13;;;;;;;;;;5010607;28;20041;-66
2022/03/15 01:59:11;;;;;;;5.65;2.20;;;;;;;;;;5010163;28;20509;-65
2022/03/15 02:01:37;;;;;;;6.53;2.42;;;;;;;;;;5010191;28;20494;-66
2022/03/15 02:04:04;;;;;;;6.50;2.05;;;;;;;;;;5010115;28;20517;-66
2022/03/15 02:06:29;;;;;;;7.30;2.20;;;;;;;;;;5010305;28;20030;-66
2022/03/15 02:08:55;;;;;;;6.75;2.17;;;;;;;;;;5010434;28;20083;-66
2022/03/15 02:11:21;;;;;;;5.95;2.58;;;;;;;;;;5010298;28;20025;-66
2022/03/15 02:13:46;;;;;;;5.20;2.40;;;;;;;;;;5010214;28;20037;-66
2022/03/15 02:16:13;;;;;;;4.93;2.10;;;;;;;;;;5010212;28;20034;-65
2022/03/15 02:18:38;;;;;;;5.32;2.40;;;;;;;;;;5010026;28;20091;-65
2022/03/15 02:21:03;;;;;;;5.57;2.33;;;;;;;;;;5010463;28;20038;-67
2022/03/15 02:23:29;;;;;;;9.75;2.50;;;;;;;;;;5009871;28;20193;-65
2022/03/15 02:25:54;;;;;;;3.70;2.13;;;;;;;;;;5010135;28;20060;-67
2022/03/15 02:28:20;;;;;;;8.13;2.20;;;;;;;;;;5009898;28;20037;-67
2022/03/15 02:30:45;;;;;;;6.18;2.60;;;;;;;;;;5013936;28;20021;-67
2022/03/15 02:33:11;;;;;;;5.30;2.20;;;;;;;;;;5013708;28;20022;-66
2022/03/15 02:35:37;;;;;;;7.20;2.70;;;;;;;;;;5013944;28;20417;-67
2022/03/15 02:38:02;;;;;;;5.80;2.35;;;;;;;;;;5013791;28;20273;-66
2022/03/15 02:40:28;;;;;;;5.15;2.60;;;;;;;;;;5013971;28;20029;-66
2022/03/15 02:42:53;;;;;;;6.90;2.47;;;;;;;;;;5014021;28;20025;-66
2022/03/15 02:45:19;;;;;;;6.85;2.58;;;;;;;;;;5013629;28;20029;-66
2022/03/15 02:47:45;;;;;;;6.32;2.35;;;;;;;;;;5013906;28;20041;-67
2022/03/15 02:50:11;;;;;;;5.45;2.45;;;;;;;;;;5013919;28;20029;-67
2022/03/15 02:52:37;;;;;;;7.50;2.70;;;;;;;;;;5013822;28;20552;-66
2022/03/15 02:55:03;;;;;;;6.50;2.60;;;;;;;;;;5013827;28;20101;-67
2022/03/15 02:57:29;;;;;;;8.32;2.67;;;;;;;;;;5013531;28;20022;-67
2022/03/15 02:59:55;;;;;;;5.03;2.60;;;;;;;;;;5013130;28;20034;-66
2022/03/15 03:02:20;;;;;;;7.03;2.90;;;;;;;;;;5013307;28;20033;-66
2022/03/15 03:04:46;;;;;;;7.55;2.25;;;;;;;;;;5013200;28;20064;-72
2022/03/15 03:07:12;;;;;;;5.53;2.60;;;;;;;;;;5013764;28;20054;-66
2022/03/15 03:09:37;;;;;;;8.07;2.50;;;;;;;;;;5013386;28;20033;-66
2022/03/15 03:12:03;;;;;;;8.07;2.35;;;;;;;;;;5013353;28;20492;-66
2022/03/15 03:14:29;;;;;;;6.50;2.80;;;;;;;;;;5013467;28;20028;-66
2022/03/15 03:16:54;;;;;;;6.35;2.80;;;;;;;;;;5013147;28;20026;-66
2022/03/15 03:19:20;;;;;;;8.18;2.83;;;;;;;;;;5012801;28;20060;-67
2022/03/15 03:21:48;;;;;;;8.02;2.85;;;;;;;;;;5013319;28;20042;-66
2022/03/15 03:24:23;;;;;;;5.53;2.83;;;;;;;;;;5013025;28;20477;-67
2022/03/15 03:26:48;;;;;;;8.90;2.78;;;;;;;;;;5013216;28;20026;-67
2022/03/15 03:29:15;;;;;;;8.50;2.83;;;;;;;;;;5012677;28;20386;-66
2022/03/15 03:31:43;;;;;;;9.07;2.80;;;;;;;;;;5012993;28;20034;-67
2022/03/15 03:34:10;;;;;;;10.77;3.22;;;;;;;;;;5012355;28;20057;-66
2022/03/15 03:36:36;;;;;;;11.70;3.33;;;;;;;;;;5012677;28;20536;-66
2022/03/15 03:39:06;;;;;;;9.82;3.22;;;;;;;;;;5012478;28;20037;-66
2022/03/15 03:41:32;;;;;;;9.82;3.25;;;;;;;;;;5012523;28;20033;-66
2022/03/15 03:43:57;;;;;;;10.02;3.20;;;;;;;;;;5012474;28;20026;-66
2022/03/15 03:46:24;;;;;;;6.93;3.17;;;;;;;;;;5012784;28;20022;-66
2022/03/15 03:48:53;;;;;;;9.05;3.45;;;;;;;;;;5012473;28;20029;-66
2022/03/15 03:51:18;;;;;;;10.80;3.15;;;;;;;;;;5012659;28;20026;-66
2022/03/15 03:53:44;;;;;;;9.77;3.42;;;;;;;;;;5011988;28;20018;-67
2022/03/15 03:56:09;;;;;;;10.38;3.08;;;;;;;;;;5012590;28;20030;-66
2022/03/15 03:58:35;;;;;;;8.63;3.20;;;;;;;;;;5012410;28;20034;-66
2022/03/15 04:01:04;;;;;;;10.52;3.45;;;;;;;;;;5012230;28;20030;-67
2022/03/15 04:03:31;;;;;;;15.70;3.65;;;;;;;;;;5012210;28;20030;-66
2022/03/15 04:05:57;;;;;;;12.20;3.40;;;;;;;;;;5012258;28;20022;-66
2022/03/15 04:08:24;;;;;;;10.73;3.78;;;;;;;;;;5012100;28;20033;-66
2022/03/15 04:10:50;;;;;;;9.00;3.17;;;;;;;;;;5012135;28;20026;-66
2022/03/15 04:13:18;;;;;;;11.02;3.40;;;;;;;;;;5012098;28;20022;-66
2022/03/15 04:15:48;;;;;;;9.38;3.58;;;;;;;;;;5012107;28;20022;-66
2022/03/15 04:18:14;;;;;;;8.80;3.30;;;;;;;;;;5012054;28;20056;-66
2022/03/15 04:20:40;;;;;;;9.98;3.25;;;;;;;;;;5011967;28;20479;-66
2022/03/15 04:23:06;;;;;;;13.38;3.67;;;;;;;;;;5011781;28;20029;-66
2022/03/15 04:25:31;;;;;;;10.48;3.80;;;;;;;;;;5011676;28;20105;-66
2022/03/15 04:28:00;;;;;;;10.30;3.63;;;;;;;;;;5011930;28;20379;-67
2022/03/15 04:30:28;;;;;;;11.88;4.05;;;;;;;;;;5011582;28;20022;-67
2022/03/15 04:32:55;;;;;;;8.90;3.90;;;;;;;;;;5011748;28;20034;-66
2022/03/15 04:35:21;;;;;;;10.18;4.18;;;;;;;;;;5011743;28;20100;-66
2022/03/15 04:37:46;;;;;;;10.43;4.25;;;;;;;;;;5011754;28;20030;-66
2022/03/15 04:40:12;;;;;;;11.23;4.50;;;;;;;;;;5011537;28;20028;-67
2022/03/15 04:42:38;;;;;;;11.02;4.50;;;;;;;;;;5011663;28;20351;-66
2022/03/15 04:45:05;;;;;;;14.70;4.80;;;;;;;;;;5011083;28;20344;-67
2022/03/15 04:47:31;;;;;;;12.82;4.57;;;;;;;;;;5011792;28;20026;-66
2022/03/15 04:49:56;;;;;;;10.30;4.53;;;;;;;;;;5011281;28;20069;-67
2022/03/15 04:52:21;;;;;;;15.93;5.30;;;;;;;;;;5010976;28;20030;-67
2022/03/15 04:54:47;;;;;;;17.35;5.55;;;;;;;;;;5011270;28;20054;-66
2022/03/15 04:57:13;;;;;;;11.45;4.95;;;;;;;;;;5011493;28;20029;-66
2022/03/15 04:59:38;;;;;;;18.10;6.05;;;;;;;;;;5011226;28;20032;-68
2022/03/15 05:02:03;;;;;;;15.50;5.82;;;;;;;;;;5011210;28;20466;-67
2022/03/15 05:04:29;;;;;;;12.20;5.90;;;;;;;;;;5011461;28;20076;-67
2022/03/15 05:06:54;;;;;;;18.25;6.00;;;;;;;;;;5011427;28;20018;-67
2022/03/15 05:09:20;;;;;;;13.20;6.20;;;;;;;;;;5011295;28;20030;-67
2022/03/15 05:11:46;;;;;;;17.15;5.82;;;;;;;;;;5011137;28;20451;-66
2022/03/15 05:14:12;;;;;;;20.75;6.35;;;;;;;;;;5011096;28;20072;-67
2022/03/15 05:16:38;;;;;;;19.05;6.05;;;;;;;;;;5010842;28;20029;-66
2022/03/15 05:19:03;;;;;;;24.45;6.80;;;;;;;;;;5011371;28;20474;-67
2022/03/15 05:21:29;;;;;;;15.38;7.03;;;;;;;;;;5010711;28;20393;-67
2022/03/15 05:23:55;;;;;;;18.13;6.32;;;;;;;;;;5010874;28;20309;-67
2022/03/15 05:26:22;;;;;;;14.25;6.15;;;;;;;;;;5010755;28;20409;-67
2022/03/15 05:28:49;;;;;;;17.08;6.38;;;;;;;;;;5010945;28;20127;-67
2022/03/15 05:31:19;;;;;;;15.57;6.40;;;;;;;;;;5010367;28;20061;-67
2022/03/15 05:33:46;;;;;;;17.48;6.30;;;;;;;;;;5010678;28;20314;-66
2022/03/15 05:36:12;;;;;;;15.52;5.80;;;;;;;;;;5010230;28;20050;-66
2022/03/15 05:38:37;;;;;;;18.50;5.80;;;;;;;;;;5010837;28;20034;-66
2022/03/15 05:41:07;;;;;;;14.82;5.72;;;;;;;;;;5010500;28;20160;-66
2022/03/15 05:43:33;;;;;;;16.55;5.45;;;;;;;;;;5010746;28;20433;-66
2022/03/15 05:45:58;;;;;;;15.00;5.53;;;;;;;;;;5010323;28;20028;-66
2022/03/15 05:48:24;;;;;;;16.90;6.30;;;;;;;;;;5010623;28;20100;-65
2022/03/15 05:50:50;;;;;;;16.70;5.28;;;;;;;;;;5010329;28;20056;-66
2022/03/15 05:53:15;;;;;;;19.42;5.55;;;;;;;;;;5010357;28;20026;-67
2022/03/15 05:55:41;;;;;;;11.90;4.70;;;;;;;;;;5010484;28;20025;-67
2022/03/15 05:58:06;;;;;;;13.43;4.88;;;;;;;;;;5010433;28;20017;-68
2022/03/15 06:00:32;;;;;;;12.45;4.85;;;;;;;;;;5010187;28;20176;-67
2022/03/15 06:02:58;;;;;;;10.38;4.38;;;;;;;;;;5010592;28;20029;-67
2022/03/15 06:05:23;;;;;;;15.30;4.95;;;;;;;;;;5009969;28;20475;-68
2022/03/15 06:07:51;;;;;;;13.85;4.50;;;;;;;;;;5010531;28;20025;-66
2022/03/15 06:10:19;;;;;;;9.05;4.70;;;;;;;;;;5010144;28;20215;-66
2022/03/15 06:12:44;;;;;;;11.68;4.65;;;;;;;;;;5010766;28;20033;-66
2022/03/15 06:15:11;;;;;;;14.20;4.78;;;;;;;;;;5010285;28;20014;-71
2022/03/15 06:17:48;;;;;;;11.98;4.63;;;;;;;;;;5010206;28;20026;-67
2022/03/15 06:20:16;;;;;;;12.65;4.75;;;;;;;;;;5010192;28;20033;-67
2022/03/15 06:22:42;;;;;;;11.75;4.20;;;;;;;;;;5010678;28;20029;-65
2022/03/15 06:25:09;;;;;;;13.50;4.60;;;;;;;;;;5010137;28;20026;-67
2022/03/15 06:27:34;;;;;;;11.00;4.10;;;;;;;;;;5010953;28;20076;-66
2022/03/15 06:30:00;;;;;;;10.07;4.45;;;;;;;;;;5010695;28;20521;-66
2022/03/15 06:32:26;;;;;;;14.95;4.30;;;;;;;;;;5011166;28;20026;-69
2022/03/15 06:34:51;;;;;;;11.32;3.95;;;;;;;;;;5010063;28;20072;-67
2022/03/15 06:37:16;;;;;;;10.32;3.70;;;;;;;;;;5009846;28;20287;-69
2022/03/15 06:39:42;;;;;;;16.10;4.13;;;;;;;;;;5009942;28;20405;-71
2022/03/15 06:42:10;;;;;;;12.07;3.83;;;;;;;;;;5009803;28;20389;-70
2022/03/15 06:44:36;;;;;;;6.53;3.13;;;;;;;;;;5009640;28;20105;-68
2022/03/15 06:47:02;;;;;;;10.35;3.25;;;;;;;;;;5009771;28;20165;-68
2022/03/15 06:49:27;;;;;;;14.13;3.78;;;;;;;;;;5010047;28;20030;-66
2022/03/15 06:51:53;;;;;;;10.68;4.20;;;;;;;;;;5010060;28;20022;-71
2022/03/15 06:54:18;;;;;;;8.45;3.78;;;;;;;;;;5009763;28;20474;-66
2022/03/15 06:56:44;;;;;;;11.00;3.60;;;;;;;;;;5010040;28;20101;-66
2022/03/15 06:59:09;;;;;;;11.00;3.63;;;;;;;;;;5009801;28;20193;-66
2022/03/15 07:01:34;;;;;;;10.07;3.80;;;;;;;;;;5009336;28;20056;-70
2022/03/15 07:04:00;;;;;;;8.80;4.07;;;;;;;;;;5009715;28;20030;-66
2022/03/15 07:06:25;;;;;;;8.43;3.72;;;;;;;;;;5009656;28;20030;-69
2022/03/15 07:08:51;;;;;;;10.40;3.75;;;;;;;;;;5010099;28;20033;-70
2022/03/15 07:11:16;;;;;;;9.02;3.45;;;;;;;;;;5024830;28;20463;-67
2022/03/15 07:13:42;;;;;;;10.02;3.80;;;;;;;;;;5009534;28;20482;-67
2022/03/15 07:16:07;;;;;;;16.58;3.88;;;;;;;;;;5012343;28;20032;-66
2022/03/15 07:18:32;;;;;;;15.43;3.97;;;;;;;;;;5013148;28;20048;-67
2022/03/15 07:20:58;;;;;;;10.60;3.88;;;;;;;;;;5012752;28;20033;-68
2022/03/15 07:23:23;;;;;;;10.82;3.40;;;;;;;;;;5013307;28;20442;-66
2022/03/15 07:25:49;;;;;;;8.82;3.15;;;;;;;;;;5013084;28;20032;-66
2022/03/15 07:28:14;;;;;;;9.07;3.40;;;;;;;;;;5013143;28;20053;-70
2022/03/15 07:30:40;;;;;;;10.68;3.40;;;;;;;;;;5012788;28;20616;-70
2022/03/15 07:33:05;;;;;;;12.35;3.78;;;;;;;;;;5012885;28;20029;-69
2022/03/15 07:35:30;;;;;;;11.00;3.38;;;;;;;;;;5012720;28;20049;-67
2022/03/15 07:37:56;;;;;;;7.88;3.75;;;;;;;;;;5012607;28;20054;-67
2022/03/15 07:40:22;;;;;;;10.30;3.55;;;;;;;;;;5012633;28;20511;-69
2022/03/15 07:42:49;;;;;;;12.70;3.55;;;;;;;;;;5012654;28;20053;-71
2022/03/15 07:45:15;;;;;;;8.57;3.60;;;;;;;;;;5012126;28;20029;-67
2022/03/15 07:47:40;;;;;;;9.82;3.45;;;;;;;;;;5012652;28;20113;-70
2022/03/15 07:50:06;;;;;;;8.10;3.30;;;;;;;;;;5012773;28;20379;-67
2022/03/15 07:52:32;;;;;;;8.43;3.50;;;;;;;;;;5012432;28;20033;-66
2022/03/15 07:54:57;;;;;;;7.88;3.20;;;;;;;;;;5012557;28;20492;-66
2022/03/15 07:57:23;;;;;;;11.15;4.00;;;;;;;;;;5012388;28;20034;-66
2022/03/15 07:59:49;;;;;;;10.45;3.38;;;;;;;;;;5012323;28;20033;-65
2022/03/15 08:02:15;;;;;;;8.32;3.50;;;;;;;;;;5012209;28;20072;-66
2022/03/15 08:04:41;;;;;;;11.20;3.75;;;;;;;;;;5012191;28;20429;-65
2022/03/15 08:07:07;;;;;;;8.27;3.25;;;;;;;;;;5012017;28;20037;-71
2022/03/15 08:09:32;;;;;;;10.02;3.92;;;;;;;;;;5012135;28;20026;-68
2022/03/15 08:11:58;;;;;;;7.35;3.78;;;;;;;;;;5011910;28;20026;-67
2022/03/15 08:14:23;;;;;;;7.90;3.60;;;;;;;;;;5011967;28;20022;-66
2022/03/15 08:16:49;;;;;;;10.77;3.88;;;;;;;;;;5011882;28;20033;-67
2022/03/15 08:19:14;;;;;;;10.00;3.63;;;;;;;;;;5012119;28;20025;-67
2022/03/15 08:21:40;;;;;;;8.35;3.60;;;;;;;;;;5011807;28;20065;-66
2022/03/15 08:24:06;;;;;;;7.43;3.50;;;;;;;;;;5011699;28;20494;-66
2022/03/15 08:26:31;;;;;;;9.65;3.85;;;;;;;;;;5011151;28;20386;-66
2022/03/15 08:28:56;;;;;;;11.25;4.18;;;;;;;;;;5011823;28;20405;-66
2022/03/15 08:31:22;;;;;;;10.63;4.20;;;;;;;;;;5012114;28;20359;-67
2022/03/15 08:33:47;;;;;;;9.98;3.83;;;;;;;;;;5011841;28;20064;-67
2022/03/15 08:36:13;;;;;;;9.70;3.63;;;;;;;;;;5011608;28;20034;-68
2022/03/15 08:38:39;;;;;;;11.68;3.83;;;;;;;;;;5011492;28;20193;-68
2022/03/15 08:41:05;;;;;;;9.63;3.90;;;;;;;;;;5011749;28;20393;-71
2022/03/15 08:43:30;;;;;;;12.18;3.75;;;;;;;;;;5011251;28;20026;-67
2022/03/15 08:45:56;;;;;;;10.52;3.53;;;;;;;;;;5011547;28;20040;-67
2022/03/15 08:48:21;;;;;;;8.68;3.60;;;;;;;;;;5011482;28;20583;-66
2022/03/15 08:50:47;;;;;;;10.82;3.90;;;;;;;;;;5011591;28;20037;-66
2022/03/15 08:53:13;;;;;;;7.47;3.53;;;;;;;;;;5011500;28;20429;-67
2022/03/15 08:55:39;;;;;;;8.32;3.72;;;;;;;;;;5011250;28;20020;-66
2022/03/15 08:58:04;;;;;;;10.57;4.07;;;;;;;;;;5011158;28;20101;-66
2022/03/15 09:00:30;;;;;;;10.45;3.65;;;;;;;;;;5011152;28;20109;-66
2022/03/15 09:02:55;;;;;;;8.80;3.70;;;;;;;;;;5011058;28;20080;-66
2022/03/15 09:05:21;;;;;;;9.27;3.72;;;;;;;;;;5011258;28;20032;-66
2022/03/15 09:07:52;;;;;;;9.63;3.67;;;;;;;;;;5011032;28;20100;-66
2022/03/15 09:10:22;;;;;;;11.63;3.72;;;;;;;;;;5011145;28;20076;-66
2022/03/15 09:12:48;;;;;;;10.77;3.85;;;;;;;;;;5010703;28;20026;-66
2022/03/15 09:15:14;;;;;;;11.35;3.63;;;;;;;;;;5010431;28;20402;-66
2022/03/15 09:17:40;;;;;;;8.63;3.80;;;;;;;;;;5010641;28;20405;-66
2022/03/15 09:20:08;;;;;;;10.88;4.20;;;;;;;;;;5010828;28;20091;-66
2022/03/15 09:22:34;;;;;;;9.75;3.85;;;;;;;;;;5010767;28;20452;-66
2022/03/15 09:24:59;;;;;;;10.25;3.90;;;;;;;;;;5010806;28;20056;-66
2022/03/15 09:27:24;;;;;;;7.88;3.50;;;;;;;;;;5010645;28;20473;-66
2022/03/15 09:29:50;;;;;;;8.93;3.63;;;;;;;;;;5025969;28;20477;-68
2022/03/15 09:32:16;;;;;;;9.50;3.88;;;;;;;;;;5010737;28;20462;-66
2022/03/15 09:34:43;;;;;;;11.95;3.90;;;;;;;;;;5010268;28;20032;-66
2022/03/15 09:37:09;;;;;;;11.80;3.92;;;;;;;;;;5010740;28;20037;-66
2022/03/15 09:39:34;;;;;;;12.05;3.97;;;;;;;;;;5010318;28;20034;-66
2022/03/15 09:42:00;;;;;;;10.82;4.00;;;;;;;;;;5010841;28;20034;-66
2022/03/15 09:44:28;;;;;;;9.98;3.90;;;;;;;;;;5010609;28;20053;-66
2022/03/15 09:46:59;;;;;;;11.73;3.95;;;;;;;;;;5010287;28;20394;-66
2022/03/15 09:49:26;;;;;;;8.02;3.88;;;;;;;;;;5010216;28;20036;-66
2022/03/15 09:51:54;;;;;;;8.23;3.78;;;;;;;;;;5010331;28;20026;-66
2022/03/15 09:54:20;;;;;;;9.77;4.22;;;;;;;;;;5010275;28;20081;-65
2022/03/15 09:56:46;;;;;;;10.10;3.85;;;;;;;;;;5010385;28;20018;-66
2022/03/15 09:59:17;;;;;;;10.05;4.25;;;;;;;;;;5010366;28;20505;-66
2022/03/15 10:01:44;;;;;;;7.60;3.83;;;;;;;;;;5010343;28;20036;-66
2022/03/15 10:04:10;;;;;;;9.65;4.07;;;;;;;;;;5010036;28;20030;-66
2022/03/15 10:06:37;;;;;;;15.20;4.38;;;;;;;;;;5010247;28;20410;-67
2022/03/15 10:09:06;;;;;;;8.20;3.85;;;;;;;;;;5009967;28;20099;-67
2022/03/15 10:11:32;;;;;;;10.27;4.15;;;;;;;;;;5010287;28;20520;-67
2022/03/15 10:13:59;;;;;;;11.20;4.05;;;;;;;;;;5010341;28;20225;-67
2022/03/15 10:16:32;;;;;;;12.80;5.07;;;;;;;;;;5010012;28;20041;-67
2022/03/15 10:18:58;;;;;;;7.95;4.05;;;;;;;;;;5009964;28;20080;-67
2022/03/15 10:21:25;;;;;;;10.02;3.95;;;;;;;;;;5010090;28;20440;-66
2022/03/15 10:23:55;;;;;;;11.40;4.20;;;;;;;;;;5010003;28;20026;-66
2022/03/15 10:26:25;;;;;;;11.65;4.00;;;;;;;;;;5010070;28;20084;-67
2022/03/15 10:28:54;;;;;;;10.93;3.92;;;;;;;;;;5010105;28;20037;-68
2022/03/15 10:31:24;;;;;;;10.13;4.47;;;;;;;;;;5010077;28;20029;-70
2022/03/15 10:33:53;;;;;;;13.30;4.27;;;;;;;;;;5009923;28;20025;-66
2022/03/15 10:36:21;;;;;;;11.93;4.00;;;;;;;;;;5009992;28;20046;-66
2022/03/15 10:38:51;;;;;;;13.60;3.92;;;;;;;;;;5009649;28;20021;-66
2022/03/15 10:41:18;;;;;;;8.43;3.72;;;;;;;;;;5009919;28;20035;-66
2022/03/15 10:43:49;;;;;;;10.00;3.72;;;;;;;;;;5009848;28;20109;-66
2022/03/15 10:46:21;;;;;;;9.98;4.07;;;;;;;;;;5009632;28;20030;-65
2022/03/15 10:48:47;;;;;;;8.10;4.10;;;;;;;;;;5010372;28;20053;-66
2022/03/15 10:51:14;;;;;;;7.57;3.70;;;;;;;;;;5013121;28;20103;-66
2022/03/15 10:53:47;;;;;;;9.32;3.97;;;;;;;;;;5013646;28;20544;-66
2022/03/15 10:56:21;;;;;;;10.27;4.60;;;;;;;;;;5013517;28;20018;-66
2022/03/15 10:58:48;;;;;;;12.75;4.65;;;;;;;;;;5013273;28;20025;-66
2022/03/15 11:01:24;;;;;;;8.65;4.10;;;;;;;;;;5013648;28;20057;-65
2022/03/15 11:04:00;;;;;;;14.93;5.35;;;;;;;;;;5013467;28;20030;-66
2022/03/15 11:06:40;;;;;;;11.38;4.80;;;;;;;;;;5013331;28;20084;-66
2022/03/15 11:09:25;;;;;;;14.88;6.38;;;;;;;;;;5013337;28;20030;-66
2022/03/15 11:12:03;;;;;;;11.05;4.35;;;;;;;;;;5013792;28;20069;-66
2022/03/15 11:14:45;;;;;;;9.95;4.50;;;;;;;;;;5012991;28;20056;-67
2022/03/15 11:17:21;;;;;;;11.32;4.35;;;;;;;;;;5013017;28;20030;-67
2022/03/15 11:19:49;;;;;;;9.48;4.18;;;;;;;;;;5012823;28;20389;-67
2022/03/15 11:22:23;;;;;;;10.55;3.80;;;;;;;;;;5013478;28;20441;-67
2022/03/15 11:25:02;;;;;;;7.60;4.32;;;;;;;;;;5013034;28;20022;-66
2022/03/15 11:27:31;;;;;;;11.38;4.00;;;;;;;;;;5013098;28;20435;-67
2022/03/15 11:30:02;;;;;;;11.40;4.30;;;;;;;;;;5012682;28;20029;-66
2022/03/15 11:32:31;;;;;;;9.75;4.13;;;;;;;;;;5012990;28;20116;-67
2022/03/15 11:34:57;;;;;;;10.88;4.68;;;;;;;;;;5012658;28;20046;-66
2022/03/15 11:37:22;;;;;;;8.63;4.13;;;;;;;;;;5012970;28;20121;-66
2022/03/15 11:39:49;;;;;;;10.55;4.03;;;;;;;;;;5012737;28;20092;-67
2022/03/15 11:42:16;;;;;;;12.15;4.10;;;;;;;;;;5012894;28;20385;-67
2022/03/15 11:45:01;;;;;;;11.85;4.18;;;;;;;;;;5012496;28;20478;-66
2022/03/15 11:47:50;;;;;;;9.95;4.25;;;;;;;;;;5012624;28;20029;-66
2022/03/15 11:50:55;;;;;;;10.18;3.97;;;;;;;;;;5012373;28;20459;-69
2022/03/15 11:53:38;;;;;;;9.38;4.32;;;;;;;;;;5012723;28;20049;-66
2022/03/15 11:56:11;;;;;;;10.45;3.97;;;;;;;;;;5012242;28;20022;-67
2022/03/15 11:58:37;;;;;;;10.15;4.53;;;;;;;;;;5012924;28;20036;-71
2022/03/15 12:01:10;;;;;;;9.55;4.38;;;;;;;;;;5012190;28;20030;-71
2022/03/15 12:03:45;;;;;;;11.40;4.35;;;;;;;;;;5012449;28;20219;-67
2022/03/15 12:06:26;;;;;;;7.82;3.65;;;;;;;;;;5012082;28;20046;-67
2022/03/15 12:08:57;;;;;;;10.90;4.20;;;;;;;;;;5012147;28;20562;-67
2022/03/15 12:11:37;;;;;;;7.78;3.75;;;;;;;;;;5012254;28;20026;-67
2022/03/15 12:14:16;;;;;;;10.73;3.80;;;;;;;;;;5013047;28;20362;-66
2022/03/15 12:16:47;;;;;;;10.35;3.90;;;;;;;;;;5012337;28;20103;-69
2022/03/15 12:19:51;;;;;;;8.52;4.00;;;;;;;;;;5011971;28;20038;-66
2022/03/15 12:22:24;;;;;;;14.43;4.60;;;;;;;;;;5012165;28;20093;-66
2022/03/15 12:25:00;;;;;;;9.52;3.83;;;;;;;;;;5011711;28;20498;-70
2022/03/15 12:27:27;;;;;;;8.35;4.53;;;;;;;;;;5011838;28;20034;-71
2022/03/15 12:29:59;;;;;;;9.02;3.83;;;;;;;;;;5011880;28;20041;-66
2022/03/15 12:32:26;;;;;;;9.88;4.20;;;;;;;;;;5012054;28;20057;-71
2022/03/15 12:34:58;;;;;;;12.00;4.07;;;;;;;;;;5011519;28;20124;-66
2022/03/15 12:37:30;;;;;;;13.25;4.30;;;;;;;;;;5011800;28;20030;-70
2022/03/15 12:39:57;;;;;;;6.95;3.70;;;;;;;;;;5011394;28;20032;-67
2022/03/15 12:42:24;;;;;;;10.50;4.20;;;;;;;;;;5011562;28;20026;-67
2022/03/15 12:44:52;;;;;;;12.88;4.05;;;;;;;;;;5011327;28;20025;-66
2022/03/15 12:47:25;;;;;;;10.02;3.75;;;;;;;;;;5011398;28;20065;-66
2022/03/15 12:50:13;;;;;;;12.93;4.10;;;;;;;;;;5011464;28;20079;-66
2022/03/15 12:52:51;;;;;;;10.18;3.90;;;;;;;;;;5011518;28;20030;-66
2022/03/15 12:55:27;;;;;;;10.38;3.72;;;;;;;;;;5011629;28;20105;-67
2022/03/15 12:58:01;;;;;;;10.32;4.18;;;;;;;;;;5011092;28;20045;-66
2022/03/15 13:00:32;;;;;;;8.57;4.05;;;;;;;;;;5011123;28;20026;-67
2022/03/15 13:02:57;;;;;;;7.18;3.50;;;;;;;;;;5011449;28;20053;-67
2022/03/15 13:05:25;;;;;;;10.65;3.88;;;;;;;;;;5011111;28;20463;-67
2022/03/15 13:08:03;;;;;;;14.00;4.43;;;;;;;;;;5011276;28;20032;-66
2022/03/15 13:10:28;;;;;;;9.88;3.75;;;;;;;;;;5010890;28;20018;-67
2022/03/15 13:12:55;;;;;;;15.32;4.70;;;;;;;;;;5010536;28;20044;-67
2022/03/15 13:15:21;;;;;;;6.75;4.10;;;;;;;;;;5010632;28;20061;-69
2022/03/15 13:17:49;;;;;;;13.52;4.72;;;;;;;;;;5010736;28;20058;-66
2022/03/15 13:20:29;;;;;;;10.18;4.40;;;;;;;;;;5010691;28;20067;-66
2022/03/15 13:23:03;;;;;;;11.68;4.00;;;;;;;;;;5011112;28;20022;-66
2022/03/15 13:25:45;;;;;;;10.82;4.10;;;;;;;;;;5010708;28;20048;-66
2022/03/15 13:28:26;;;;;;;11.98;4.25;;;;;;;;;;5010816;28;20109;-66
2022/03/15 13:30:57;;;;;;;12.15;3.95;;;;;;;;;;5010504;28;20036;-66
2022/03/15 13:33:38;;;;;;;10.73;4.30;;;;;;;;;;5010746;28;20030;-66
2022/03/15 13:36:03;;;;;;;8.27;4.07;;;;;;;;;;5010314;28;20049;-66
2022/03/15 13:38:39;;;;;;;11.60;4.28;;;;;;;;;;5010824;28;20478;-67
2022/03/15 13:41:07;;;;;;;13.27;4.53;;;;;;;;;;5011085;28;20022;-67
2022/03/15 13:43:34;;;;;;;14.05;4.60;;;;;;;;;;5010581;28;20248;-67
2022/03/15 13:46:07;;;;;;;13.63;4.03;;;;;;;;;;5010325;28;20025;-66
2022/03/15 13:48:34;;;;;;;10.95;4.05;;;;;;;;;;5010548;28;20025;-69
2022/03/15 13:51:04;;;;;;;9.65;4.00;;;;;;;;;;5010212;28;20052;-67
2022/03/15 13:53:31;;;;;;;8.50;4.38;;;;;;;;;;5010600;28;20026;-67
2022/03/15 13:56:07;;;;;;;9.23;4.32;;;;;;;;;;5010194;28;20440;-66
2022/03/15 13:58:34;;;;;;;10.35;4.63;;;;;;;;;;5010584;28;20026;-67
2022/03/15 14:01:06;;;;;;;10.30;4.60;;;;;;;;;;5010304;28;20050;-68
2022/03/15 14:03:34;;;;;;;9.73;4.43;;;;;;;;;;5010894;28;20029;-66
2022/03/15 14:06:04;;;;;;;11.23;4.10;;;;;;;;;;5010337;28;20030;-66
2022/03/15 14:08:44;;;;;;;9.70;4.03;;;;;;;;;;5010283;28;20112;-66
2022/03/15 14:11:12;;;;;;;10.38;4.50;;;;;;;;;;5010391;28;20018;-67
2022/03/15 14:13:37;;;;;;;13.90;4.50;;;;;;;;;;5010657;28;20049;-66
2022/03/15 14:16:11;;;;;;;11.27;4.50;;;;;;;;;;5010207;28;20374;-68
2022/03/15 14:18:37;;;;;;;13.02;5.05;;;;;;;;;;5010376;28;20053;-67
2022/03/15 14:21:03;;;;;;;11.50;4.70;;;;;;;;;;5010508;28;20499;-66
2022/03/15 14:23:29;;;;;;;11.43;4.20;;;;;;;;;;5010654;28;20029;-66
2022/03/15 14:26:01;;;;;;;13.10;4.88;;;;;;;;;;5012834;28;20041;-66
2022/03/15 14:28:28;;;;;;;12.30;4.25;;;;;;;;;;5014414;28;20030;-66
2022/03/15 14:31:01;;;;;;;14.73;4.97;;;;;;;;;;5013847;28;20204;-66
2022/03/15 14:33:27;;;;;;;12.88;4.75;;;;;;;;;;5014424;28;20026;-66
2022/03/15 14:35:59;;;;;;;9.40;4.55;;;;;;;;;;5013584;28;20052;-67
2022/03/15 14:38:25;;;;;;;12.43;4.15;;;;;;;;;;5013924;28;20037;-67
2022/03/15 14:40:58;;;;;;;11.20;4.50;;;;;;;;;;5013931;28;20034;-66